Latest Weather Observations for Melbourne Airport

IDV60901

Issued at 9:51 pm EDT Monday 16 January 2017 (issued every 10 minutes, with the page automatically refreshed every 10 minutes)

About weather observations | Map of Melbourne area stations | Latest observations for Melbourne area | Other Formats
Station Details ID: 086282 Name: MELBOURNE AIRPORT Lat: -37.67 Lon: 144.83 Height: 113.4 m
Data from the previous 72 hours. | See also: Recent months at Melbourne Airport
Date/Time
EDT
Temp
°C
App
Temp
°C
Dew
Point
°C
Rel
Hum
%
Delta-T
°C
Wind Press
QNH
hPa
Press
MSL
hPa
Rain since
9am
mm
Dir  Spd
km/h
Gust
km/h
Spd
kts
Gust
kts
16/09:30pm 23.7 24.2 11.7 47 6.8 CALM 0 0 0 0 1010.6 1010.2 0.0
16/09:00pm 24.2 24.2 11.1 43 7.4 WSW 2 7 1 4 1010.6 1010.2 0.0
16/08:30pm 25.9 24.5 10.9 39 8.5 S 9 13 5 7 1010.7 1010.3 0.0
16/08:00pm 27.0 23.7 9.6 33 9.7 S 17 22 9 12 1010.7 1010.3 0.0
16/07:30pm 27.9 24.6 9.7 32 10.2 S 17 22 9 12 1010.5 1010.1 0.0
16/07:00pm 32.7 32.4 8.8 23 13.5 CALM 0 0 0 0 1009.9 1009.5 0.0
16/06:30pm 32.7 31.3 8.8 23 13.5 SE 6 13 3 7 1009.9 1009.5 0.0
16/06:00pm 32.1 28.7 9.2 24 13.0 SSE 17 20 9 11 1009.9 1009.5 0.0
16/05:30pm 31.1 27.8 9.6 26 12.2 SSE 17 24 9 13 1010.2 1009.8 0.0
16/05:00pm 32.3 28.6 9.5 24 13.0 SE 19 26 10 14 1010.3 1009.9 0.0
16/04:30pm 31.9 28.1 9.9 25 12.6 SE 20 30 11 16 1010.6 1010.2 0.0
16/04:00pm 31.8 26.5 10.0 26 12.5 SSE 28 35 15 19 1011.0 1010.6 0.0
16/03:42pm 32.5 27.3 10.1 25 12.9 S 28 41 15 22 1011.0 1010.6 0.0
16/03:30pm 32.0 31.5 9.5 25 12.8 SSW 2 9 1 5 1011.2 1010.8 0.0
16/03:00pm 33.2 28.9 5.4 17 14.9 NNW 17 30 9 16 1011.7 1011.3 0.0
16/02:30pm 30.4 29.0 9.0 26 12.0 S 6 15 3 8 1012.1 1011.7 0.0
16/02:00pm 30.3 30.1 10.6 29 11.3 W 2 11 1 6 1012.6 1012.2 0.0
16/01:30pm 28.6 27.5 10.7 32 10.2 SSE 7 15 4 8 1013.3 1012.9 0.0
16/01:00pm 27.5 27.3 11.7 37 9.1 NE 4 13 2 7 1013.7 1013.3 0.0
16/12:30pm 26.0 24.7 11.2 39 8.4 ENE 9 15 5 8 1014.1 1013.7 0.0
16/12:00pm 24.7 23.2 10.6 41 7.9 NNW 9 15 5 8 1014.6 1014.2 0.0
16/11:30am 23.0 22.4 10.5 45 6.9 NW 4 13 2 7 1015.1 1014.8 0.0
16/11:00am 22.2 22.0 11.7 51 5.9 WNW 4 9 2 5 1015.5 1015.2 0.0
16/10:30am 21.1 20.5 11.8 55 5.2 ENE 6 15 3 8 1015.7 1015.4 0.0
16/10:00am 19.2 17.6 11.4 60 4.3 NNE 11 15 6 8 1015.7 1015.4 0.0
16/09:30am 17.8 16.2 11.6 67 3.4 NE 11 19 6 10 1016.0 1015.7 0.0
16/09:00am 16.8 15.3 10.6 67 3.3 ENE 9 13 5 7 1016.3 1016.0 0.0
16/08:30am 16.1 14.8 11.1 72 2.7 NE 9 11 5 6 1016.5 1016.2 0.0
16/08:00am 15.2 14.2 11.1 76 2.2 NNE 7 11 4 6 1016.5 1016.2 0.0
16/07:30am 14.6 14.9 11.0 79 1.9 CALM 0 0 0 0 1016.4 1016.1 0.0
16/07:00am 13.3 13.5 10.6 84 1.4 CALM 0 0 0 0 1016.2 1015.9 0.0
16/06:30am 12.6 11.5 10.1 85 1.3 NNE 6 7 3 4 1016.0 1015.7 0.0
16/06:00am 13.6 13.7 10.3 80 1.7 CALM 0 4 0 2 1015.9 1015.6 0.0
16/05:30am 13.7 13.2 10.7 82 1.6 NE 4 7 2 4 1015.9 1015.6 0.0
16/05:00am 14.1 14.3 10.7 80 1.8 CALM 0 0 0 0 1015.7 1015.4 0.0
16/04:30am 14.0 14.2 10.6 80 1.8 CALM 0 4 0 2 1015.7 1015.4 0.0
16/04:00am 14.0 13.0 11.0 82 1.6 NE 7 9 4 5 1015.6 1015.3 0.0
16/03:30am 13.9 12.8 10.7 81 1.7 ENE 7 11 4 6 1015.6 1015.3 0.0
16/03:00am 14.0 13.5 10.6 80 1.8 NNE 4 6 2 3 1016.0 1015.7 0.0
16/02:30am 13.1 13.4 10.8 86 1.2 CALM 0 0 0 0 1016.1 1015.8 0.0
16/02:00am 12.7 12.2 10.8 88 1.0 N 4 7 2 4 1016.3 1016.0 0.0
16/01:30am 12.8 11.9 10.5 86 1.2 NNW 6 7 3 4 1016.6 1016.3 0.0
16/01:00am 12.7 11.5 10.4 86 1.2 NW 7 9 4 5 1016.9 1016.6 0.0
16/12:30am 13.0 12.1 10.5 85 1.3 WSW 6 7 3 4 1017.1 1016.8 0.0
16/12:00am 13.2 12.1 10.7 85 1.3 SW 7 11 4 6 1017.2 1016.9 0.0
 
Date/Time
EDT
Temp
°C
App
Temp
°C
Dew
Point
°C
Rel
Hum
%
Delta-T
°C
Wind Press
QNH
hPa
Press
MSL
hPa
Rain since
9am
mm
Dir  Spd
km/h
Gust
km/h
Spd
kts
Gust
kts
15/11:30pm 13.1 12.0 10.8 86 1.2 SW 7 9 4 5 1017.4 1017.1 0.0
15/11:00pm 13.7 12.7 10.9 83 1.5 SW 7 9 4 5 1017.6 1017.3 0.0
15/10:30pm 14.1 12.8 11.1 82 1.6 SSW 9 11 5 6 1017.6 1017.3 0.0
15/10:00pm 14.4 13.0 11.0 80 1.8 SSW 9 11 5 6 1017.8 1017.5 0.0
15/09:30pm 14.9 13.1 11.0 77 2.1 S 11 15 6 8 1017.9 1017.6 0.0
15/09:00pm 16.1 13.6 10.9 71 2.8 S 15 22 8 12 1018.1 1017.7 0.0
15/08:30pm 16.9 13.9 10.5 66 3.4 S 17 22 9 12 1017.8 1017.5 0.0
15/08:00pm 17.8 14.7 10.3 61 4.0 S 17 24 9 13 1017.6 1017.3 0.0
15/07:30pm 18.5 14.9 9.9 57 4.6 S 19 26 10 14 1017.4 1017.1 0.0
15/07:00pm 19.1 15.2 9.3 53 5.2 S 20 26 11 14 1017.4 1017.1 0.0
15/06:30pm 19.4 14.9 8.7 50 5.6 S 22 28 12 15 1017.4 1017.1 0.0
15/06:00pm 19.3 14.0 8.6 50 5.6 S 26 33 14 18 1017.3 1017.0 0.0
15/05:30pm 20.2 15.3 9.8 51 5.6 SSE 26 32 14 17 1017.3 1017.0 0.0
15/05:00pm 21.0 16.4 9.7 48 6.1 SSE 24 32 13 17 1017.2 1016.9 0.0
15/04:30pm 20.8 16.8 8.9 46 6.3 SSE 20 30 11 16 1017.4 1017.1 0.0
15/04:00pm 21.4 18.0 9.0 45 6.6 SE 17 26 9 14 1017.6 1017.3 0.0
15/03:30pm 21.6 17.9 9.3 45 6.6 SSE 19 30 10 16 1017.6 1017.3 0.0
15/03:00pm 22.0 18.1 8.6 42 7.1 SE 19 35 10 19 1017.7 1017.4 0.0
15/02:30pm 21.4 18.2 8.5 43 6.8 SSE 15 28 8 15 1018.2 1017.8 0.0
15/02:00pm 21.1 17.8 8.1 43 6.8 SE 15 24 8 13 1018.3 1017.9 0.0
15/01:30pm 20.3 16.8 7.2 42 6.7 SSW 15 24 8 13 1018.5 1018.1 0.0
15/01:00pm 21.0 18.0 7.7 42 6.9 SSW 13 26 7 14 1018.7 1018.3 0.0
15/12:30pm 19.8 17.1 7.3 44 6.4 SSE 11 20 6 11 1018.9 1018.5 0.0
15/12:00pm 18.7 15.3 7.5 48 5.7 S 15 24 8 13 1019.0 1018.6 0.0
15/11:30am 18.2 15.8 6.8 47 5.7 SSE 9 20 5 11 1019.1 1018.7 0.0
15/11:00am 17.9 16.0 7.7 51 5.2 SSW 7 15 4 8 1019.0 1018.6 0.0
15/10:30am 17.4 14.7 7.5 52 5.0 S 11 19 6 10 1019.4 1019.0 0.0
15/10:00am 16.3 14.0 7.3 55 4.5 SW 9 15 5 8 1019.4 1019.0 0.0
15/09:30am 15.8 13.0 7.1 56 4.3 SSW 11 19 6 10 1019.3 1018.9 0.0
15/09:00am 15.7 12.2 7.0 56 4.3 SW 15 19 8 10 1019.1 1018.7 0.0
15/08:30am 15.0 10.8 7.6 61 3.7 SW 19 22 10 12 1019.0 1018.6 0.0
15/08:00am 14.6 10.8 7.5 62 3.5 SW 17 20 9 11 1018.8 1018.4 0.0
15/07:30am 14.4 11.4 7.5 63 3.4 SW 13 19 7 10 1018.4 1018.0 0.0
15/07:00am 14.0 10.6 7.8 66 3.1 SW 15 19 8 10 1018.1 1017.7 0.0
15/06:30am 13.6 10.6 7.7 67 2.9 SW 13 15 7 8 1017.9 1017.6 0.0
15/06:00am 13.4 10.9 8.0 70 2.7 SW 11 15 6 8 1017.8 1017.5 0.0
15/05:30am 13.4 10.9 8.0 70 2.7 WSW 11 15 6 8 1017.4 1017.1 0.0
15/05:00am 13.5 9.8 7.9 69 2.8 WSW 17 24 9 13 1017.1 1016.8 0.0
15/04:30am 13.3 9.4 8.5 72 2.4 WSW 19 26 10 14 1016.8 1016.5 0.0
15/04:00am 13.4 10.1 8.2 71 2.6 SW 15 22 8 12 1016.6 1016.3 0.0
15/03:30am 13.3 10.1 8.5 72 2.4 WSW 15 17 8 9 1016.4 1016.1 0.0
15/03:00am 12.2 9.4 8.4 77 1.9 WSW 13 17 7 9 1016.5 1016.2 0.0
15/02:30am 11.6 8.6 7.9 78 1.8 WSW 13 15 7 8 1016.5 1016.2 0.0
15/02:00am 12.4 8.8 8.2 75 2.1 SW 17 19 9 10 1016.8 1016.5 0.0
15/01:30am 12.7 9.2 7.4 70 2.6 SW 15 20 8 11 1016.9 1016.6 0.0
15/01:00am 12.4 9.0 7.5 72 2.4 SW 15 19 8 10 1016.8 1016.5 0.0
15/12:30am 13.4 8.4 6.6 63 3.3 SW 22 28 12 15 1016.8 1016.5 0.0
15/12:00am 13.4 9.4 6.6 63 3.3 SW 17 22 9 12 1016.8 1016.5 0.0
 
Date/Time
EDT
Temp
°C
App
Temp
°C
Dew
Point
°C
Rel
Hum
%
Delta-T
°C
Wind Press
QNH
hPa
Press
MSL
hPa
Rain since
9am
mm
Dir  Spd
km/h
Gust
km/h
Spd
kts
Gust
kts
14/11:30pm 14.3 9.7 6.5 59 3.8 SW 20 28 11 15 1016.6 1016.3 0.0
14/11:00pm 14.6 9.6 8.2 65 3.2 SW 24 35 13 19 1016.5 1016.2 0.0
14/10:30pm 15.1 10.6 8.6 65 3.3 SSW 22 32 12 17 1016.3 1016.0 0.0
14/10:00pm 15.9 11.2 7.8 58 4.1 SSW 22 37 12 20 1016.0 1015.7 0.0
14/09:30pm 16.3 11.5 7.5 56 4.4 SSW 22 30 12 16 1015.5 1015.2 0.0
14/09:00pm 17.1 11.0 6.4 49 5.3 SW 28 39 15 21 1015.2 1014.9 0.0
14/08:30pm 18.2 12.3 7.6 50 5.4 SW 28 35 15 19 1014.8 1014.4 0.0
14/08:00pm 18.9 12.1 7.1 46 6.0 SSW 32 37 17 20 1014.2 1013.8 0.0
14/07:41pm 19.5 12.0 6.4 42 6.6 SW 35 54 19 29 1013.7 1013.3 0.0
14/07:30pm 20.0 12.8 6.0 40 7.0 SW 33 43 18 23 1013.6 1013.2 0.0
14/07:00pm 20.9 12.6 6.0 38 7.5 SW 39 56 21 30 1013.2 1012.8 0.0
14/06:46pm 20.5 13.4 6.2 39 7.2 SW 33 56 18 30 1013.0 1012.6 0.0
14/06:30pm 21.3 14.4 7.4 40 7.2 SW 33 50 18 27 1012.8 1012.4 0.0
14/06:00pm 22.3 15.3 6.8 36 8.0 SW 33 44 18 24 1012.3 1011.9 0.0
14/05:30pm 23.2 16.4 7.1 35 8.4 SW 32 52 17 28 1012.1 1011.7 0.0
14/05:28pm 22.8 16.8 7.0 36 8.2 SW 28 52 15 28 1012.0 1011.6 0.0
14/05:00pm 21.9 15.1 7.0 38 7.7 WSW 32 44 17 24 1011.9 1011.5 0.0
14/04:41pm 23.7 17.4 7.6 35 8.5 SW 30 48 16 26 1011.6 1011.2 0.0
14/04:30pm 22.9 16.4 8.0 38 7.9 WSW 32 43 17 23 1011.7 1011.3 0.0
14/04:00pm 22.1 14.8 7.0 37 7.8 SW 35 48 19 26 1011.5 1011.1 0.0
14/03:30pm 22.1 14.8 7.3 38 7.7 WSW 35 56 19 30 1011.4 1011.0 0.0
14/03:28pm 22.3 15.4 7.3 38 7.8 WSW 33 56 18 30 1011.4 1011.0 0.0
14/03:00pm 21.8 15.0 7.1 38 7.6 WSW 32 41 17 22 1011.2 1010.8 0.0
14/02:55pm 22.1 15.1 7.0 37 7.8 WSW 33 52 18 28 1011.2 1010.8 0.0
14/02:30pm 21.8 14.4 6.6 37 7.8 WSW 35 48 19 26 1011.1 1010.7 0.0
14/02:04pm 21.7 15.9 7.8 40 7.3 WSW 28 46 15 25 1010.9 1010.5 0.0
14/02:00pm 22.5 16.7 7.9 39 7.7 WSW 28 39 15 21 1010.8 1010.4 0.0
14/01:30pm 21.2 14.7 8.3 43 6.8 WSW 32 43 17 23 1010.9 1010.5 0.0
14/01:00pm 19.4 14.1 8.5 49 5.7 WSW 26 35 14 19 1010.8 1010.4 0.0
14/12:30pm 19.3 13.4 9.1 51 5.4 W 30 39 16 21 1010.5 1010.1 0.0
14/12:00pm 18.5 12.3 8.0 50 5.4 WSW 30 44 16 24 1010.2 1009.8 0.0
14/11:30am 17.9 11.3 7.7 51 5.2 W 32 43 17 23 1010.0 1009.6 0.0
14/11:00am 18.2 11.9 7.6 50 5.4 WSW 30 37 16 20 1009.6 1009.2 0.0
14/10:32am 17.5 11.3 7.7 52 5.0 WSW 30 48 16 26 1009.5 1009.1 0.0
14/10:30am 17.4 10.7 7.3 51 5.1 WSW 32 48 17 26 1009.5 1009.1 0.0
14/10:27am 17.4 11.1 7.3 51 5.1 WSW 30 48 16 26 1009.5 1009.1 0.0
14/10:00am 17.7 12.2 7.5 51 5.2 WSW 26 39 14 21 1009.1 1008.8 0.0
14/09:30am 17.0 10.4 7.8 54 4.7 WSW 32 39 17 21 1009.1 1008.8 0.0
14/09:00am 16.9 12.7 8.3 57 4.4 W 20 33 11 18 1009.0 1008.7 4.0
14/08:39am 16.0 10.2 7.9 58 4.1 W 28 46 15 25 1008.8 1008.5 4.0
14/08:30am 16.8 11.1 8.5 58 4.3 W 28 37 15 20 1008.6 1008.3 4.0
14/08:00am 15.6 12.5 8.8 64 3.5 W 15 20 8 11 1008.3 1008.0 4.0
14/07:30am 13.6 10.5 8.7 72 2.5 W 15 19 8 10 1007.8 1007.5 4.0
14/07:00am 13.1 8.9 7.6 69 2.7 WNW 19 28 10 15 1007.3 1006.9 4.0
14/06:30am 12.0 7.9 7.7 75 2.1 WNW 19 28 10 15 1007.0 1006.6 4.0
14/06:00am 12.7 8.5 7.6 71 2.5 NW 19 22 10 12 1006.7 1006.3 4.0
14/05:30am 12.2 8.9 8.0 75 2.1 WNW 15 20 8 11 1006.3 1005.9 4.0
14/05:00am 13.0 8.7 8.0 71 2.5 WNW 20 28 11 15 1006.2 1005.8 4.0
14/04:30am 13.3 9.6 8.1 71 2.6 W 17 30 9 16 1005.9 1005.5 4.0
14/04:00am 12.5 9.4 8.9 79 1.8 WNW 15 20 8 11 1005.7 1005.3 4.0
14/03:30am 13.1 9.9 8.5 73 2.3 W 15 20 8 11 1005.5 1005.1 4.0
14/03:00am 13.1 10.5 9.2 77 2.0 WNW 13 19 7 10 1005.4 1005.0 4.0
14/02:30am 13.9 11.2 8.8 71 2.6 WNW 13 17 7 9 1005.5 1005.1 4.0
14/02:00am 15.0 10.6 9.0 67 3.1 WSW 22 30 12 16 1005.6 1005.2 4.0
14/01:30am 14.6 12.8 9.4 71 2.7 W 9 13 5 7 1005.3 1004.9 4.0
14/01:00am 14.5 13.3 10.3 76 2.2 NNW 7 11 4 6 1005.0 1004.6 4.0
14/12:30am 14.4 13.4 10.4 77 2.1 W 6 11 3 6 1004.9 1004.5 4.0
14/12:00am 15.5 14.4 10.6 72 2.6 WSW 7 11 4 6 1004.8 1004.4 4.0
 
Date/Time
EDT
Temp
°C
App
Temp
°C
Dew
Point
°C
Rel
Hum
%
Delta-T
°C
Wind Press
QNH
hPa
Press
MSL
hPa
Rain since
9am
mm
Dir  Spd
km/h
Gust
km/h
Spd
kts
Gust
kts
13/11:30pm 16.0 15.0 10.4 69 3.0 WNW 6 9 3 5 1004.6 1004.2 4.0
13/11:00pm 16.3 16.1 10.5 68 3.1 SSE 2 6 1 3 1004.5 1004.1 4.0
13/10:30pm 16.3 15.3 10.9 70 2.9 SW 7 11 4 6 1004.3 1003.9 4.0
13/10:00pm 17.4 15.1 10.3 63 3.8 SW 13 17 7 9 1004.3 1003.9 4.0

Latest Capital City Observations: Canberra | Sydney | Melbourne | Brisbane | Adelaide | Perth | Hobart | Darwin

Other Formats:

Comma delimited format used in spreadsheet applications
http://www.bom.gov.au/fwo/IDV60901/IDV60901.94866.axf

JavaScript Object Notation format (JSON) in row-major order
http://www.bom.gov.au/fwo/IDV60901/IDV60901.94866.json